sensor_id;sensor_type;location;lat;lon;timestamp;temperature;humidity
4374;DHT22;2201;51.100;6.814;2023-09-12T00:02:25;22.20;98.20
4374;DHT22;2201;51.100;6.814;2023-09-12T00:04:53;22.20;98.20
4374;DHT22;2201;51.100;6.814;2023-09-12T00:07:19;22.10;98.20
4374;DHT22;2201;51.100;6.814;2023-09-12T00:09:46;22.00;98.20
4374;DHT22;2201;51.100;6.814;2023-09-12T00:12:14;22.00;98.20
4374;DHT22;2201;51.100;6.814;2023-09-12T00:14:41;21.90;98.20
4374;DHT22;2201;51.100;6.814;2023-09-12T00:17:08;21.90;98.20
4374;DHT22;2201;51.100;6.814;2023-09-12T00:19:35;21.90;98.20
4374;DHT22;2201;51.100;6.814;2023-09-12T00:22:03;21.90;98.20
4374;DHT22;2201;51.100;6.814;2023-09-12T00:24:30;21.80;98.20
4374;DHT22;2201;51.100;6.814;2023-09-12T00:26:57;21.90;98.20
4374;DHT22;2201;51.100;6.814;2023-09-12T00:29:23;21.90;98.20
4374;DHT22;2201;51.100;6.814;2023-09-12T00:31:50;21.90;98.20
4374;DHT22;2201;51.100;6.814;2023-09-12T00:34:17;21.90;98.20
4374;DHT22;2201;51.100;6.814;2023-09-12T00:36:44;21.80;98.20
4374;DHT22;2201;51.100;6.814;2023-09-12T00:39:12;21.80;98.20
4374;DHT22;2201;51.100;6.814;2023-09-12T00:41:39;21.80;98.20
4374;DHT22;2201;51.100;6.814;2023-09-12T00:44:06;21.70;98.20
4374;DHT22;2201;51.100;6.814;2023-09-12T00:46:33;21.70;98.20
4374;DHT22;2201;51.100;6.814;2023-09-12T00:49:01;21.70;98.20
4374;DHT22;2201;51.100;6.814;2023-09-12T00:51:31;21.70;98.20
4374;DHT22;2201;51.100;6.814;2023-09-12T00:53:58;21.70;98.20
4374;DHT22;2201;51.100;6.814;2023-09-12T00:56:26;21.70;98.20
4374;DHT22;2201;51.100;6.814;2023-09-12T00:58:53;21.70;98.20
4374;DHT22;2201;51.100;6.814;2023-09-12T01:01:20;21.70;98.20
4374;DHT22;2201;51.100;6.814;2023-09-12T01:03:47;21.70;98.20
4374;DHT22;2201;51.100;6.814;2023-09-12T01:06:15;21.80;98.20
4374;DHT22;2201;51.100;6.814;2023-09-12T01:08:45;21.80;98.20
4374;DHT22;2201;51.100;6.814;2023-09-12T01:11:12;21.80;98.20
4374;DHT22;2201;51.100;6.814;2023-09-12T01:13:40;21.80;98.20
4374;DHT22;2201;51.100;6.814;2023-09-12T01:16:07;21.80;98.20
4374;DHT22;2201;51.100;6.814;2023-09-12T01:18:34;21.70;98.20
4374;DHT22;2201;51.100;6.814;2023-09-12T01:21:39;21.70;98.20
4374;DHT22;2201;51.100;6.814;2023-09-12T01:24:27;21.70;98.20
4374;DHT22;2201;51.100;6.814;2023-09-12T01:29:32;21.60;98.20
4374;DHT22;2201;51.100;6.814;2023-09-12T01:32:00;21.50;98.20
4374;DHT22;2201;51.100;6.814;2023-09-12T01:34:28;21.50;98.20
4374;DHT22;2201;51.100;6.814;2023-09-12T01:36:54;21.50;98.20
4374;DHT22;2201;51.100;6.814;2023-09-12T01:39:21;21.50;98.20
4374;DHT22;2201;51.100;6.814;2023-09-12T01:41:48;21.50;98.20
4374;DHT22;2201;51.100;6.814;2023-09-12T01:44:17;21.50;98.20
4374;DHT22;2201;51.100;6.814;2023-09-12T01:46:46;21.50;98.20
4374;DHT22;2201;51.100;6.814;2023-09-12T01:49:16;21.50;98.20
4374;DHT22;2201;51.100;6.814;2023-09-12T01:51:44;21.50;98.20
4374;DHT22;2201;51.100;6.814;2023-09-12T01:54:11;21.50;98.20
4374;DHT22;2201;51.100;6.814;2023-09-12T01:56:38;21.50;98.20
4374;DHT22;2201;51.100;6.814;2023-09-12T01:59:06;21.40;98.20
4374;DHT22;2201;51.100;6.814;2023-09-12T02:01:33;21.40;98.20
4374;DHT22;2201;51.100;6.814;2023-09-12T02:04:01;21.40;98.20
4374;DHT22;2201;51.100;6.814;2023-09-12T02:06:27;21.40;98.20
4374;DHT22;2201;51.100;6.814;2023-09-12T02:08:54;21.40;98.20
4374;DHT22;2201;51.100;6.814;2023-09-12T02:11:21;21.40;98.20
4374;DHT22;2201;51.100;6.814;2023-09-12T02:13:47;21.40;98.20
4374;DHT22;2201;51.100;6.814;2023-09-12T02:16:14;21.30;98.20
4374;DHT22;2201;51.100;6.814;2023-09-12T02:18:41;21.30;98.20
4374;DHT22;2201;51.100;6.814;2023-09-12T02:21:09;21.30;98.20
4374;DHT22;2201;51.100;6.814;2023-09-12T02:23:36;21.30;98.20
4374;DHT22;2201;51.100;6.814;2023-09-12T02:26:02;21.30;98.20
4374;DHT22;2201;51.100;6.814;2023-09-12T02:28:29;21.20;98.20
4374;DHT22;2201;51.100;6.814;2023-09-12T02:30:56;21.20;98.20
4374;DHT22;2201;51.100;6.814;2023-09-12T02:33:22;21.20;98.20
4374;DHT22;2201;51.100;6.814;2023-09-12T02:35:49;21.20;98.20
4374;DHT22;2201;51.100;6.814;2023-09-12T02:38:18;21.30;98.20
4374;DHT22;2201;51.100;6.814;2023-09-12T02:40:44;21.20;98.20
4374;DHT22;2201;51.100;6.814;2023-09-12T02:43:11;21.30;98.20
4374;DHT22;2201;51.100;6.814;2023-09-12T02:45:38;21.20;98.20
4374;DHT22;2201;51.100;6.814;2023-09-12T02:48:05;21.20;98.20
4374;DHT22;2201;51.100;6.814;2023-09-12T02:50:31;21.20;98.20
4374;DHT22;2201;51.100;6.814;2023-09-12T02:52:58;21.20;98.20
4374;DHT22;2201;51.100;6.814;2023-09-12T02:55:26;21.20;98.20
4374;DHT22;2201;51.100;6.814;2023-09-12T02:57:53;21.20;98.20
4374;DHT22;2201;51.100;6.814;2023-09-12T03:00:20;21.20;98.20
4374;DHT22;2201;51.100;6.814;2023-09-12T03:02:47;21.20;98.20
4374;DHT22;2201;51.100;6.814;2023-09-12T03:05:13;21.20;98.20
4374;DHT22;2201;51.100;6.814;2023-09-12T03:07:40;21.20;98.20
4374;DHT22;2201;51.100;6.814;2023-09-12T03:10:07;21.20;98.20
4374;DHT22;2201;51.100;6.814;2023-09-12T03:12:36;21.20;98.20
4374;DHT22;2201;51.100;6.814;2023-09-12T03:15:04;21.20;98.20
4374;DHT22;2201;51.100;6.814;2023-09-12T03:17:31;21.20;98.20
4374;DHT22;2201;51.100;6.814;2023-09-12T03:19:58;21.20;98.20
4374;DHT22;2201;51.100;6.814;2023-09-12T03:22:25;21.20;98.20
4374;DHT22;2201;51.100;6.814;2023-09-12T03:24:52;21.20;98.20
4374;DHT22;2201;51.100;6.814;2023-09-12T03:27:19;21.20;98.20
4374;DHT22;2201;51.100;6.814;2023-09-12T03:29:48;21.20;98.20
4374;DHT22;2201;51.100;6.814;2023-09-12T03:32:14;21.10;98.20
4374;DHT22;2201;51.100;6.814;2023-09-12T03:34:41;21.20;98.20
4374;DHT22;2201;51.100;6.814;2023-09-12T03:37:08;21.20;98.20
4374;DHT22;2201;51.100;6.814;2023-09-12T03:39:35;21.20;98.20
4374;DHT22;2201;51.100;6.814;2023-09-12T03:42:02;21.20;98.20
4374;DHT22;2201;51.100;6.814;2023-09-12T03:44:29;21.20;98.20
4374;DHT22;2201;51.100;6.814;2023-09-12T03:46:57;21.20;98.20
4374;DHT22;2201;51.100;6.814;2023-09-12T03:49:24;21.20;98.20
4374;DHT22;2201;51.100;6.814;2023-09-12T03:51:51;21.20;98.20
4374;DHT22;2201;51.100;6.814;2023-09-12T03:54:18;21.20;98.20
4374;DHT22;2201;51.100;6.814;2023-09-12T03:56:44;21.30;98.20
4374;DHT22;2201;51.100;6.814;2023-09-12T03:59:11;21.30;98.20
4374;DHT22;2201;51.100;6.814;2023-09-12T04:01:38;21.30;98.20
4374;DHT22;2201;51.100;6.814;2023-09-12T04:04:06;21.30;98.20
4374;DHT22;2201;51.100;6.814;2023-09-12T04:06:33;21.30;98.20
4374;DHT22;2201;51.100;6.814;2023-09-12T04:09:00;21.30;98.20
4374;DHT22;2201;51.100;6.814;2023-09-12T04:11:26;21.30;98.20
4374;DHT22;2201;51.100;6.814;2023-09-12T04:13:53;21.30;98.20
4374;DHT22;2201;51.100;6.814;2023-09-12T04:16:20;21.30;98.20
4374;DHT22;2201;51.100;6.814;2023-09-12T04:18:46;21.30;98.20
4374;DHT22;2201;51.100;6.814;2023-09-12T04:21:15;21.30;98.20
4374;DHT22;2201;51.100;6.814;2023-09-12T04:23:41;21.30;98.20
4374;DHT22;2201;51.100;6.814;2023-09-12T04:26:08;21.30;98.20
4374;DHT22;2201;51.100;6.814;2023-09-12T04:28:35;21.30;98.20
4374;DHT22;2201;51.100;6.814;2023-09-12T04:31:02;21.30;98.20
4374;DHT22;2201;51.100;6.814;2023-09-12T04:33:29;21.40;98.20
4374;DHT22;2201;51.100;6.814;2023-09-12T04:35:58;21.40;98.20
4374;DHT22;2201;51.100;6.814;2023-09-12T04:38:27;21.40;98.20
4374;DHT22;2201;51.100;6.814;2023-09-12T04:40:54;21.50;98.20
4374;DHT22;2201;51.100;6.814;2023-09-12T04:43:21;21.50;98.20
4374;DHT22;2201;51.100;6.814;2023-09-12T04:45:48;21.50;98.20
4374;DHT22;2201;51.100;6.814;2023-09-12T04:48:15;21.40;98.20
4374;DHT22;2201;51.100;6.814;2023-09-12T04:50:42;21.40;98.20
4374;DHT22;2201;51.100;6.814;2023-09-12T04:53:09;21.30;98.20
4374;DHT22;2201;51.100;6.814;2023-09-12T04:55:37;21.40;98.20
4374;DHT22;2201;51.100;6.814;2023-09-12T04:58:05;21.40;98.20
4374;DHT22;2201;51.100;6.814;2023-09-12T05:00:32;21.40;98.20
4374;DHT22;2201;51.100;6.814;2023-09-12T05:03:00;21.30;98.20
4374;DHT22;2201;51.100;6.814;2023-09-12T05:05:27;21.30;98.20
4374;DHT22;2201;51.100;6.814;2023-09-12T05:07:54;21.30;98.20
4374;DHT22;2201;51.100;6.814;2023-09-12T05:10:21;21.30;98.20
4374;DHT22;2201;51.100;6.814;2023-09-12T05:12:49;21.30;98.20
4374;DHT22;2201;51.100;6.814;2023-09-12T05:15:16;21.30;98.20
4374;DHT22;2201;51.100;6.814;2023-09-12T05:17:42;21.30;98.20
4374;DHT22;2201;51.100;6.814;2023-09-12T05:20:10;21.30;98.20
4374;DHT22;2201;51.100;6.814;2023-09-12T05:22:37;21.30;98.20
4374;DHT22;2201;51.100;6.814;2023-09-12T05:25:04;21.30;98.20
4374;DHT22;2201;51.100;6.814;2023-09-12T05:27:31;21.30;98.20
4374;DHT22;2201;51.100;6.814;2023-09-12T05:29:59;21.30;98.20
4374;DHT22;2201;51.100;6.814;2023-09-12T05:32:26;21.30;98.20
4374;DHT22;2201;51.100;6.814;2023-09-12T05:34:52;21.30;98.20
4374;DHT22;2201;51.100;6.814;2023-09-12T05:37:19;21.30;98.20
4374;DHT22;2201;51.100;6.814;2023-09-12T05:39:46;21.30;98.20
4374;DHT22;2201;51.100;6.814;2023-09-12T05:42:13;21.30;98.20
4374;DHT22;2201;51.100;6.814;2023-09-12T05:44:40;21.30;98.20
4374;DHT22;2201;51.100;6.814;2023-09-12T05:47:09;21.30;98.20
4374;DHT22;2201;51.100;6.814;2023-09-12T05:49:36;21.30;98.20
4374;DHT22;2201;51.100;6.814;2023-09-12T05:52:03;21.30;98.20
4374;DHT22;2201;51.100;6.814;2023-09-12T05:54:30;21.30;98.20
4374;DHT22;2201;51.100;6.814;2023-09-12T05:56:56;21.20;98.20
4374;DHT22;2201;51.100;6.814;2023-09-12T05:59:23;21.10;98.20
4374;DHT22;2201;51.100;6.814;2023-09-12T06:01:50;21.10;98.20
4374;DHT22;2201;51.100;6.814;2023-09-12T06:04:19;21.10;98.20
4374;DHT22;2201;51.100;6.814;2023-09-12T06:06:46;21.10;98.20
4374;DHT22;2201;51.100;6.814;2023-09-12T06:09:13;21.10;98.20
4374;DHT22;2201;51.100;6.814;2023-09-12T06:11:40;21.10;98.20
4374;DHT22;2201;51.100;6.814;2023-09-12T06:14:06;21.10;98.20
4374;DHT22;2201;51.100;6.814;2023-09-12T06:16:33;21.20;98.20
4374;DHT22;2201;51.100;6.814;2023-09-12T06:19:00;21.30;98.20
4374;DHT22;2201;51.100;6.814;2023-09-12T06:21:28;21.40;98.20
4374;DHT22;2201;51.100;6.814;2023-09-12T06:24:08;21.50;98.20
4374;DHT22;2201;51.100;6.814;2023-09-12T06:26:35;21.50;98.20
4374;DHT22;2201;51.100;6.814;2023-09-12T06:29:02;21.60;98.20
4374;DHT22;2201;51.100;6.814;2023-09-12T06:31:29;21.60;98.20
4374;DHT22;2201;51.100;6.814;2023-09-12T06:33:56;21.60;98.20
4374;DHT22;2201;51.100;6.814;2023-09-12T06:36:23;21.70;98.20
4374;DHT22;2201;51.100;6.814;2023-09-12T06:38:51;21.80;98.20
4374;DHT22;2201;51.100;6.814;2023-09-12T06:41:19;21.80;98.20
4374;DHT22;2201;51.100;6.814;2023-09-12T06:43:46;21.90;98.20
4374;DHT22;2201;51.100;6.814;2023-09-12T06:46:13;22.10;98.20
4374;DHT22;2201;51.100;6.814;2023-09-12T06:48:40;22.10;98.20
4374;DHT22;2201;51.100;6.814;2023-09-12T06:51:08;22.10;98.20
4374;DHT22;2201;51.100;6.814;2023-09-12T06:53:35;22.20;98.20
4374;DHT22;2201;51.100;6.814;2023-09-12T06:56:04;22.20;98.20
4374;DHT22;2201;51.100;6.814;2023-09-12T06:58:31;22.20;98.20
4374;DHT22;2201;51.100;6.814;2023-09-12T07:01:01;22.20;98.20
4374;DHT22;2201;51.100;6.814;2023-09-12T07:03:29;22.30;98.20
4374;DHT22;2201;51.100;6.814;2023-09-12T07:05:56;22.30;98.20
4374;DHT22;2201;51.100;6.814;2023-09-12T07:08:23;22.30;98.20
4374;DHT22;2201;51.100;6.814;2023-09-12T07:10:49;22.30;98.20
4374;DHT22;2201;51.100;6.814;2023-09-12T07:13:17;22.30;98.20
4374;DHT22;2201;51.100;6.814;2023-09-12T07:15:44;22.30;98.20
4374;DHT22;2201;51.100;6.814;2023-09-12T07:18:11;22.40;98.20
4374;DHT22;2201;51.100;6.814;2023-09-12T07:20:38;22.50;98.20
4374;DHT22;2201;51.100;6.814;2023-09-12T07:23:05;22.50;98.20
4374;DHT22;2201;51.100;6.814;2023-09-12T07:25:37;22.50;98.20
4374;DHT22;2201;51.100;6.814;2023-09-12T07:28:04;22.50;98.20
4374;DHT22;2201;51.100;6.814;2023-09-12T07:30:32;22.50;98.20
4374;DHT22;2201;51.100;6.814;2023-09-12T07:32:59;22.60;98.20
4374;DHT22;2201;51.100;6.814;2023-09-12T07:35:25;22.70;98.20
4374;DHT22;2201;51.100;6.814;2023-09-12T07:37:52;22.80;98.20
4374;DHT22;2201;51.100;6.814;2023-09-12T07:40:19;22.90;98.20
4374;DHT22;2201;51.100;6.814;2023-09-12T07:42:46;23.10;98.20
4374;DHT22;2201;51.100;6.814;2023-09-12T07:45:13;23.40;98.20
4374;DHT22;2201;51.100;6.814;2023-09-12T07:47:41;23.60;98.20
4374;DHT22;2201;51.100;6.814;2023-09-12T07:50:08;23.80;98.20
4374;DHT22;2201;51.100;6.814;2023-09-12T07:52:35;24.10;98.20
4374;DHT22;2201;51.100;6.814;2023-09-12T07:55:02;24.30;98.20
4374;DHT22;2201;51.100;6.814;2023-09-12T07:57:30;24.50;98.20
4374;DHT22;2201;51.100;6.814;2023-09-12T07:59:57;24.70;98.20
4374;DHT22;2201;51.100;6.814;2023-09-12T08:02:24;24.70;98.20
4374;DHT22;2201;51.100;6.814;2023-09-12T08:04:52;24.80;98.20
4374;DHT22;2201;51.100;6.814;2023-09-12T08:07:19;24.90;98.20
4374;DHT22;2201;51.100;6.814;2023-09-12T08:09:50;25.00;98.20
4374;DHT22;2201;51.100;6.814;2023-09-12T08:12:18;25.00;98.20
4374;DHT22;2201;51.100;6.814;2023-09-12T08:14:46;25.10;98.20
4374;DHT22;2201;51.100;6.814;2023-09-12T08:17:13;25.00;98.20
4374;DHT22;2201;51.100;6.814;2023-09-12T08:19:40;25.00;98.20
4374;DHT22;2201;51.100;6.814;2023-09-12T08:22:09;25.00;98.20
4374;DHT22;2201;51.100;6.814;2023-09-12T08:24:37;25.00;98.20
4374;DHT22;2201;51.100;6.814;2023-09-12T08:27:04;25.10;98.20
4374;DHT22;2201;51.100;6.814;2023-09-12T08:29:32;25.20;98.20
4374;DHT22;2201;51.100;6.814;2023-09-12T08:31:59;25.20;98.20
4374;DHT22;2201;51.100;6.814;2023-09-12T08:34:27;25.30;98.20
4374;DHT22;2201;51.100;6.814;2023-09-12T08:36:53;25.20;98.20
4374;DHT22;2201;51.100;6.814;2023-09-12T08:39:26;25.30;98.20
4374;DHT22;2201;51.100;6.814;2023-09-12T08:41:53;25.40;98.20
4374;DHT22;2201;51.100;6.814;2023-09-12T08:44:21;25.50;98.20
4374;DHT22;2201;51.100;6.814;2023-09-12T08:46:48;25.70;98.20
4374;DHT22;2201;51.100;6.814;2023-09-12T08:49:15;25.80;98.20
4374;DHT22;2201;51.100;6.814;2023-09-12T08:51:42;26.00;98.20
4374;DHT22;2201;51.100;6.814;2023-09-12T08:54:10;26.10;98.20
4374;DHT22;2201;51.100;6.814;2023-09-12T08:56:40;26.20;98.20
4374;DHT22;2201;51.100;6.814;2023-09-12T08:59:08;26.40;98.20
4374;DHT22;2201;51.100;6.814;2023-09-12T09:01:36;26.50;98.20
4374;DHT22;2201;51.100;6.814;2023-09-12T09:04:04;26.70;98.20
4374;DHT22;2201;51.100;6.814;2023-09-12T09:06:32;26.70;98.20
4374;DHT22;2201;51.100;6.814;2023-09-12T09:09:04;26.80;98.20
4374;DHT22;2201;51.100;6.814;2023-09-12T09:11:31;26.80;98.20
4374;DHT22;2201;51.100;6.814;2023-09-12T09:13:59;26.90;98.20
4374;DHT22;2201;51.100;6.814;2023-09-12T09:16:26;26.90;98.20
4374;DHT22;2201;51.100;6.814;2023-09-12T09:18:54;26.80;98.20
4374;DHT22;2201;51.100;6.814;2023-09-12T09:21:22;26.80;98.20
4374;DHT22;2201;51.100;6.814;2023-09-12T09:23:50;26.70;98.20
4374;DHT22;2201;51.100;6.814;2023-09-12T09:26:19;26.60;98.20
4374;DHT22;2201;51.100;6.814;2023-09-12T09:29:05;26.60;98.20
4374;DHT22;2201;51.100;6.814;2023-09-12T09:31:32;26.60;98.00
4374;DHT22;2201;51.100;6.814;2023-09-12T09:34:00;26.60;97.70
4374;DHT22;2201;51.100;6.814;2023-09-12T09:36:28;26.50;98.20
4374;DHT22;2201;51.100;6.814;2023-09-12T09:38:57;26.50;98.20
4374;DHT22;2201;51.100;6.814;2023-09-12T09:41:25;26.70;97.80
4374;DHT22;2201;51.100;6.814;2023-09-12T09:44:25;26.90;98.20
4374;DHT22;2201;51.100;6.814;2023-09-12T09:46:55;27.00;96.00
4374;DHT22;2201;51.100;6.814;2023-09-12T09:51:57;27.50;94.80
4374;DHT22;2201;51.100;6.814;2023-09-12T09:54:25;27.70;94.50
4374;DHT22;2201;51.100;6.814;2023-09-12T09:56:54;27.80;94.90
4374;DHT22;2201;51.100;6.814;2023-09-12T09:59:24;27.90;94.20
4374;DHT22;2201;51.100;6.814;2023-09-12T10:02:10;28.10;93.00
4374;DHT22;2201;51.100;6.814;2023-09-12T10:04:48;28.10;93.00
4374;DHT22;2201;51.100;6.814;2023-09-12T10:07:16;28.20;93.80
4374;DHT22;2201;51.100;6.814;2023-09-12T10:09:44;28.10;92.00
4374;DHT22;2201;51.100;6.814;2023-09-12T10:12:12;28.30;92.60
4374;DHT22;2201;51.100;6.814;2023-09-12T10:14:41;28.30;93.20
4374;DHT22;2201;51.100;6.814;2023-09-12T10:17:13;28.40;91.00
4374;DHT22;2201;51.100;6.814;2023-09-12T10:19:46;28.50;91.70
4374;DHT22;2201;51.100;6.814;2023-09-12T10:22:20;28.50;91.40
4374;DHT22;2201;51.100;6.814;2023-09-12T10:24:49;28.70;90.70
4374;DHT22;2201;51.100;6.814;2023-09-12T10:27:18;28.80;90.50
4374;DHT22;2201;51.100;6.814;2023-09-12T10:29:46;28.90;89.70
4374;DHT22;2201;51.100;6.814;2023-09-12T10:32:17;29.00;89.70
4374;DHT22;2201;51.100;6.814;2023-09-12T10:34:46;29.10;90.80
4374;DHT22;2201;51.100;6.814;2023-09-12T10:37:16;29.10;90.20
4374;DHT22;2201;51.100;6.814;2023-09-12T10:39:43;29.00;90.00
4374;DHT22;2201;51.100;6.814;2023-09-12T10:42:10;28.90;90.60
4374;DHT22;2201;51.100;6.814;2023-09-12T10:44:38;28.80;90.20
4374;DHT22;2201;51.100;6.814;2023-09-12T10:47:07;28.70;90.30
4374;DHT22;2201;51.100;6.814;2023-09-12T10:49:34;28.60;91.70
4374;DHT22;2201;51.100;6.814;2023-09-12T10:52:01;28.60;91.80
4374;DHT22;2201;51.100;6.814;2023-09-12T10:54:36;28.70;91.40
4374;DHT22;2201;51.100;6.814;2023-09-12T10:57:04;28.80;91.10
4374;DHT22;2201;51.100;6.814;2023-09-12T10:59:31;28.80;91.40
4374;DHT22;2201;51.100;6.814;2023-09-12T11:02:30;29.00;91.20
4374;DHT22;2201;51.100;6.814;2023-09-12T11:04:57;28.90;89.50
4374;DHT22;2201;51.100;6.814;2023-09-12T11:07:31;28.80;90.30
4374;DHT22;2201;51.100;6.814;2023-09-12T11:10:19;28.70;90.20
4374;DHT22;2201;51.100;6.814;2023-09-12T11:12:47;28.80;91.40
4374;DHT22;2201;51.100;6.814;2023-09-12T11:15:15;28.90;89.80
4374;DHT22;2201;51.100;6.814;2023-09-12T11:17:44;28.90;89.10
4374;DHT22;2201;51.100;6.814;2023-09-12T11:20:12;29.00;89.10
4374;DHT22;2201;51.100;6.814;2023-09-12T11:22:40;29.10;89.40
4374;DHT22;2201;51.100;6.814;2023-09-12T11:25:18;29.20;89.50
4374;DHT22;2201;51.100;6.814;2023-09-12T11:27:46;29.30;88.30
4374;DHT22;2201;51.100;6.814;2023-09-12T11:30:28;29.30;88.10
4374;DHT22;2201;51.100;6.814;2023-09-12T11:32:58;29.40;87.80
4374;DHT22;2201;51.100;6.814;2023-09-12T11:35:26;29.40;88.10
4374;DHT22;2201;51.100;6.814;2023-09-12T11:37:55;29.30;88.40
4374;DHT22;2201;51.100;6.814;2023-09-12T11:40:23;29.40;87.80
4374;DHT22;2201;51.100;6.814;2023-09-12T11:42:52;29.50;88.20
4374;DHT22;2201;51.100;6.814;2023-09-12T11:45:20;29.60;88.50
4374;DHT22;2201;51.100;6.814;2023-09-12T11:47:47;29.70;87.90
4374;DHT22;2201;51.100;6.814;2023-09-12T11:50:29;29.70;87.80
4374;DHT22;2201;51.100;6.814;2023-09-12T11:53:03;29.70;88.50
4374;DHT22;2201;51.100;6.814;2023-09-12T11:55:36;29.70;87.80
4374;DHT22;2201;51.100;6.814;2023-09-12T11:58:03;29.80;87.20
4374;DHT22;2201;51.100;6.814;2023-09-12T12:00:30;29.80;87.20
4374;DHT22;2201;51.100;6.814;2023-09-12T12:02:57;29.80;87.70
4374;DHT22;2201;51.100;6.814;2023-09-12T12:05:24;29.80;87.50
4374;DHT22;2201;51.100;6.814;2023-09-12T12:07:54;29.80;86.20
4374;DHT22;2201;51.100;6.814;2023-09-12T12:10:23;29.80;87.20
4374;DHT22;2201;51.100;6.814;2023-09-12T12:12:53;29.80;87.20
4374;DHT22;2201;51.100;6.814;2023-09-12T12:15:20;29.90;86.90
4374;DHT22;2201;51.100;6.814;2023-09-12T12:17:47;30.00;87.40
4374;DHT22;2201;51.100;6.814;2023-09-12T12:20:14;30.10;86.30
4374;DHT22;2201;51.100;6.814;2023-09-12T12:22:41;30.20;86.50
4374;DHT22;2201;51.100;6.814;2023-09-12T12:25:10;30.30;86.50
4374;DHT22;2201;51.100;6.814;2023-09-12T12:27:37;30.40;86.50
4374;DHT22;2201;51.100;6.814;2023-09-12T12:30:06;30.40;85.70
4374;DHT22;2201;51.100;6.814;2023-09-12T12:32:34;30.40;87.30
4374;DHT22;2201;51.100;6.814;2023-09-12T12:35:02;30.40;86.90
4374;DHT22;2201;51.100;6.814;2023-09-12T12:37:30;30.50;85.10
4374;DHT22;2201;51.100;6.814;2023-09-12T12:39:57;30.50;85.90
4374;DHT22;2201;51.100;6.814;2023-09-12T12:42:33;30.50;86.90
4374;DHT22;2201;51.100;6.814;2023-09-12T12:45:01;30.60;86.00
4374;DHT22;2201;51.100;6.814;2023-09-12T12:47:28;30.60;85.10
4374;DHT22;2201;51.100;6.814;2023-09-12T12:49:56;30.60;86.00
4374;DHT22;2201;51.100;6.814;2023-09-12T12:52:23;30.60;84.50
4374;DHT22;2201;51.100;6.814;2023-09-12T12:54:51;30.60;85.70
4374;DHT22;2201;51.100;6.814;2023-09-12T12:57:19;30.50;84.60
4374;DHT22;2201;51.100;6.814;2023-09-12T12:59:48;30.50;85.70
4374;DHT22;2201;51.100;6.814;2023-09-12T13:02:16;30.50;85.20
4374;DHT22;2201;51.100;6.814;2023-09-12T13:04:44;30.50;85.20
4374;DHT22;2201;51.100;6.814;2023-09-12T13:07:11;30.40;84.20
4374;DHT22;2201;51.100;6.814;2023-09-12T13:09:38;30.40;85.40
4374;DHT22;2201;51.100;6.814;2023-09-12T13:12:06;30.50;84.60
4374;DHT22;2201;51.100;6.814;2023-09-12T13:14:34;30.50;85.40
4374;DHT22;2201;51.100;6.814;2023-09-12T13:17:02;30.60;85.10
4374;DHT22;2201;51.100;6.814;2023-09-12T13:19:29;30.70;83.60
4374;DHT22;2201;51.100;6.814;2023-09-12T13:21:56;30.80;83.50
4374;DHT22;2201;51.100;6.814;2023-09-12T13:24:22;30.80;85.40
4374;DHT22;2201;51.100;6.814;2023-09-12T13:26:49;30.90;83.70
4374;DHT22;2201;51.100;6.814;2023-09-12T13:29:16;31.10;84.00
4374;DHT22;2201;51.100;6.814;2023-09-12T13:31:43;31.30;84.80
4374;DHT22;2201;51.100;6.814;2023-09-12T13:34:11;31.30;83.30
4374;DHT22;2201;51.100;6.814;2023-09-12T13:36:38;31.20;84.60
4374;DHT22;2201;51.100;6.814;2023-09-12T13:39:05;31.20;84.20
4374;DHT22;2201;51.100;6.814;2023-09-12T13:41:32;31.10;82.90
4374;DHT22;2201;51.100;6.814;2023-09-12T13:43:58;31.00;84.40
4374;DHT22;2201;51.100;6.814;2023-09-12T13:46:25;30.80;84.20
4374;DHT22;2201;51.100;6.814;2023-09-12T13:48:52;30.60;85.90
4374;DHT22;2201;51.100;6.814;2023-09-12T13:51:20;30.40;84.90
4374;DHT22;2201;51.100;6.814;2023-09-12T13:53:47;30.10;85.70
4374;DHT22;2201;51.100;6.814;2023-09-12T13:56:14;30.00;85.70
4374;DHT22;2201;51.100;6.814;2023-09-12T13:58:40;29.90;86.10
4374;DHT22;2201;51.100;6.814;2023-09-12T14:01:07;30.00;86.00
4374;DHT22;2201;51.100;6.814;2023-09-12T14:03:34;30.00;85.80
4374;DHT22;2201;51.100;6.814;2023-09-12T14:06:01;30.00;85.40
4374;DHT22;2201;51.100;6.814;2023-09-12T14:08:29;30.20;85.20
4374;DHT22;2201;51.100;6.814;2023-09-12T14:10:56;30.40;86.60
4374;DHT22;2201;51.100;6.814;2023-09-12T14:13:22;30.40;86.00
4374;DHT22;2201;51.100;6.814;2023-09-12T14:15:49;30.50;83.90
4374;DHT22;2201;51.100;6.814;2023-09-12T14:18:16;30.70;84.60
4374;DHT22;2201;51.100;6.814;2023-09-12T14:20:43;30.80;83.70
4374;DHT22;2201;51.100;6.814;2023-09-12T14:23:10;30.80;84.40
4374;DHT22;2201;51.100;6.814;2023-09-12T14:25:38;30.70;85.20
4374;DHT22;2201;51.100;6.814;2023-09-12T14:28:05;30.70;84.80
4374;DHT22;2201;51.100;6.814;2023-09-12T14:30:32;30.70;84.50
4374;DHT22;2201;51.100;6.814;2023-09-12T14:33:01;30.60;84.40
4374;DHT22;2201;51.100;6.814;2023-09-12T14:35:28;30.60;84.10
4374;DHT22;2201;51.100;6.814;2023-09-12T14:37:55;30.50;83.50
4374;DHT22;2201;51.100;6.814;2023-09-12T14:40:23;30.40;85.30
4374;DHT22;2201;51.100;6.814;2023-09-12T14:42:52;30.40;83.70
4374;DHT22;2201;51.100;6.814;2023-09-12T14:45:19;30.20;84.90
4374;DHT22;2201;51.100;6.814;2023-09-12T14:47:46;30.10;84.60
4374;DHT22;2201;51.100;6.814;2023-09-12T14:50:13;29.90;85.80
4374;DHT22;2201;51.100;6.814;2023-09-12T14:52:39;29.80;86.50
4374;DHT22;2201;51.100;6.814;2023-09-12T14:55:07;29.80;87.20
4374;DHT22;2201;51.100;6.814;2023-09-12T14:57:35;29.70;87.40
4374;DHT22;2201;51.100;6.814;2023-09-12T15:00:04;29.70;86.90
4374;DHT22;2201;51.100;6.814;2023-09-12T15:02:31;29.60;86.90
4374;DHT22;2201;51.100;6.814;2023-09-12T15:04:59;29.50;87.00
4374;DHT22;2201;51.100;6.814;2023-09-12T15:07:26;29.40;87.80
4374;DHT22;2201;51.100;6.814;2023-09-12T15:09:55;29.30;87.00
4374;DHT22;2201;51.100;6.814;2023-09-12T15:12:22;29.10;87.10
4374;DHT22;2201;51.100;6.814;2023-09-12T15:14:50;28.90;88.60
4374;DHT22;2201;51.100;6.814;2023-09-12T15:17:18;28.90;88.00
4374;DHT22;2201;51.100;6.814;2023-09-12T15:19:45;28.90;88.70
4374;DHT22;2201;51.100;6.814;2023-09-12T15:22:12;28.70;89.30
4374;DHT22;2201;51.100;6.814;2023-09-12T15:24:40;28.70;89.50
4374;DHT22;2201;51.100;6.814;2023-09-12T15:27:08;28.60;89.90
4374;DHT22;2201;51.100;6.814;2023-09-12T15:29:35;28.60;90.30
4374;DHT22;2201;51.100;6.814;2023-09-12T15:32:02;28.60;90.80
4374;DHT22;2201;51.100;6.814;2023-09-12T15:34:32;28.50;91.30
4374;DHT22;2201;51.100;6.814;2023-09-12T15:37:10;28.50;91.40
4374;DHT22;2201;51.100;6.814;2023-09-12T15:39:38;28.40;91.60
4374;DHT22;2201;51.100;6.814;2023-09-12T15:42:05;28.40;91.20
4374;DHT22;2201;51.100;6.814;2023-09-12T15:44:33;28.30;91.60
4374;DHT22;2201;51.100;6.814;2023-09-12T15:47:00;28.30;91.80
4374;DHT22;2201;51.100;6.814;2023-09-12T15:49:28;28.30;91.30
4374;DHT22;2201;51.100;6.814;2023-09-12T15:51:57;28.40;91.20
4374;DHT22;2201;51.100;6.814;2023-09-12T15:54:24;28.40;91.60
4374;DHT22;2201;51.100;6.814;2023-09-12T15:56:54;28.40;91.20
4374;DHT22;2201;51.100;6.814;2023-09-12T15:59:21;28.40;91.10
4374;DHT22;2201;51.100;6.814;2023-09-12T16:01:48;28.30;90.60
4374;DHT22;2201;51.100;6.814;2023-09-12T16:04:15;28.30;91.60
4374;DHT22;2201;51.100;6.814;2023-09-12T16:06:42;28.20;91.30
4374;DHT22;2201;51.100;6.814;2023-09-12T16:09:11;28.20;91.90
4374;DHT22;2201;51.100;6.814;2023-09-12T16:11:38;28.00;92.00
4374;DHT22;2201;51.100;6.814;2023-09-12T16:14:05;28.00;93.00